Terminal Aerodrome Forecast
Issued by NWS Cleveland, OH

Home | Current Version | Previous Version | Text Only | Print | Product List | Glossary Off
Versions: 1 2 3 4 5 6 7 8 9 10 11 12 13 14 15 16

000
FTUS41 KCLE 190300 AAB
TAFCAK
TAF AMD
KCAK 190308Z 1903/1924 22010G15KT P6SM SCT035
     FM191500 20015G25KT P6SM BKN035 OVC080
     FM192100 19015G25KT 2SM -SN OVC025=

USA.gov is the U.S. government's official web portal to all federal, state and local government web resources and services.